Time;durP1;ratioP1;P1;durP2;ratioP2;P2;SDS_P1;SDS_P2;PMS_P1;PMS_P2;Temp;Humidity;BMP_temperature;BMP_pressure;BME280_temperature;BME280_humidity;BME280_pressure;Samples;Min_cycle;Max_cycle;Signal;HPM_P1;HPM_P2
2022/01/01 00:01:05;;;;;;;6.13;1.98;;;14.10;99.90;;;;;;5092317;28;20208;-83
2022/01/01 00:03:34;;;;;;;2.58;2.22;;;14.10;99.90;;;;;;5092382;28;20208;-83
2022/01/01 00:06:08;;;;;;;2.13;1.92;;;14.10;99.90;;;;;;5092011;28;20216;-83
2022/01/01 00:08:36;;;;;;;2.00;1.90;;;14.00;99.90;;;;;;5092128;28;20236;-83
2022/01/01 00:11:05;;;;;;;3.90;2.00;;;14.10;99.90;;;;;;5091790;28;20273;-83
2022/01/01 00:13:53;;;;;;;2.25;2.08;;;14.10;99.90;;;;;;5092886;28;20208;-83
2022/01/01 00:16:24;;;;;;;2.25;2.05;;;14.10;99.90;;;;;;5092322;28;20224;-88
2022/01/01 00:18:52;;;;;;;2.30;2.10;;;14.00;99.90;;;;;;5091735;28;20279;-88
2022/01/01 00:21:20;;;;;;;1.90;1.80;;;14.00;99.90;;;;;;5092192;28;20394;-88
2022/01/01 00:23:49;;;;;;;1.88;1.77;;;14.00;99.90;;;;;;5092331;28;20251;-89
2022/01/01 00:26:17;;;;;;;2.83;2.17;;;14.00;99.90;;;;;;5092206;28;20251;-88
2022/01/01 00:28:45;;;;;;;2.22;2.03;;;14.00;99.90;;;;;;5091860;28;20250;-88
2022/01/01 00:31:15;;;;;;;2.80;2.58;;;14.00;99.90;;;;;;5092176;28;20295;-88
2022/01/01 00:33:43;;;;;;;2.10;1.90;;;14.00;99.90;;;;;;5092553;28;20241;-89
2022/01/01 00:36:12;;;;;;;2.03;1.92;;;13.90;99.90;;;;;;5092328;28;20220;-82
2022/01/01 00:38:40;;;;;;;2.20;2.00;;;13.90;99.90;;;;;;5091912;28;20228;-83
2022/01/01 00:41:08;;;;;;;2.03;1.83;;;13.90;99.90;;;;;;5092263;28;20272;-83
2022/01/01 00:43:37;;;;;;;1.98;1.88;;;13.90;99.90;;;;;;5092022;28;20247;-83
2022/01/01 00:46:05;;;;;;;2.10;1.90;;;13.80;99.90;;;;;;5092148;28;20303;-82
2022/01/01 00:48:35;;;;;;;2.80;2.35;;;13.70;99.90;;;;;;5093078;28;20232;-82
2022/01/01 00:51:24;;;;;;;2.58;2.17;;;13.70;99.90;;;;;;5095703;28;20236;-84
2022/01/01 00:53:53;;;;;;;2.42;2.22;;;13.60;99.90;;;;;;5095635;28;20225;-89
2022/01/01 00:56:21;;;;;;;3.50;2.65;;;13.60;99.90;;;;;;5095335;28;20262;-90
2022/01/01 00:58:49;;;;;;;2.78;2.58;;;13.50;99.90;;;;;;5095073;28;20216;-90
2022/01/01 01:01:18;;;;;;;2.75;2.55;;;13.50;99.90;;;;;;5095431;28;20299;-90
2022/01/01 01:03:50;;;;;;;2.63;2.42;;;13.40;99.90;;;;;;5095191;28;20219;-89
2022/01/01 01:06:19;;;;;;;2.50;2.20;;;13.40;99.90;;;;;;5095512;28;20299;-90
2022/01/01 01:08:47;;;;;;;2.53;2.33;;;13.30;99.90;;;;;;5094950;28;20292;-89
2022/01/01 01:11:15;;;;;;;3.38;2.47;;;13.40;99.90;;;;;;5095449;28;20231;-89
2022/01/01 01:13:45;;;;;;;4.40;3.53;;;13.30;99.90;;;;;;5095123;28;20239;-89
2022/01/01 01:16:14;;;;;;;2.22;2.08;;;13.30;99.90;;;;;;5094842;28;20248;-90
2022/01/01 01:18:43;;;;;;;2.78;2.58;;;13.30;99.90;;;;;;5095058;28;20208;-89
2022/01/01 01:21:12;;;;;;;2.63;2.42;;;13.20;99.90;;;;;;5094699;28;20242;-87
2022/01/01 01:23:42;;;;;;;4.20;3.00;;;13.30;99.90;;;;;;5094881;28;20201;-87
2022/01/01 01:26:10;;;;;;;2.55;2.15;;;13.30;99.90;;;;;;5094397;28;20255;-87
2022/01/01 01:28:45;;;;;;;2.70;2.50;;;13.20;99.90;;;;;;5094685;28;20291;-87
2022/01/01 01:31:14;;;;;;;3.58;2.78;;;13.20;99.90;;;;;;5095386;28;20196;-87
2022/01/01 01:33:43;;;;;;;3.03;2.72;;;13.20;99.90;;;;;;5094643;28;20208;-87
2022/01/01 01:36:13;;;;;;;2.42;2.22;;;13.20;99.90;;;;;;5094212;28;20285;-87
2022/01/01 01:38:42;;;;;;;6.88;3.22;;;13.20;99.90;;;;;;5094267;28;20322;-87
2022/01/01 01:41:11;;;;;;;2.80;2.60;;;13.10;99.90;;;;;;5094597;28;20230;-87
2022/01/01 01:43:39;;;;;;;3.08;2.67;;;13.10;99.90;;;;;;5094769;28;20264;-87
2022/01/01 01:46:12;;;;;;;3.88;3.22;;;13.10;99.90;;;;;;5094620;28;20254;-87
2022/01/01 01:48:41;;;;;;;2.78;2.58;;;13.10;99.90;;;;;;5094293;28;20204;-86
2022/01/01 01:51:11;;;;;;;3.70;3.38;;;13.10;99.90;;;;;;5094318;28;20235;-87
2022/01/01 01:53:41;;;;;;;3.28;2.97;;;13.10;99.90;;;;;;5094682;28;20204;-87
2022/01/01 01:56:09;;;;;;;2.67;2.47;;;13.10;99.90;;;;;;5094438;28;20274;-87
2022/01/01 01:58:38;;;;;;;3.38;3.00;;;13.10;99.90;;;;;;5093775;28;20327;-87
2022/01/01 02:01:23;;;;;;;3.13;2.83;;;13.00;99.90;;;;;;5093107;28;20212;-87
2022/01/01 02:03:56;;;;;;;4.72;2.80;;;13.00;99.90;;;;;;5094812;28;20292;-87
2022/01/01 02:06:25;;;;;;;7.18;3.10;;;13.00;99.90;;;;;;5094550;28;20289;-90
2022/01/01 02:08:55;;;;;;;3.47;3.17;;;12.90;99.90;;;;;;5093717;28;20196;-89
2022/01/01 02:11:24;;;;;;;3.72;3.28;;;12.90;99.90;;;;;;5093849;28;20209;-89
2022/01/01 02:14:09;;;;;;;3.35;3.05;;;12.90;99.90;;;;;;5093612;28;20228;-90
2022/01/01 02:16:53;;;;;;;6.60;3.28;;;12.90;99.90;;;;;;5094032;28;20267;-89
2022/01/01 02:19:24;;;;;;;3.55;3.35;;;12.90;99.90;;;;;;5093492;28;20208;-89
2022/01/01 02:21:56;;;;;;;6.50;3.47;;;12.90;99.90;;;;;;5093624;28;20212;-89
2022/01/01 02:24:25;;;;;;;4.90;3.55;;;12.90;99.90;;;;;;5093110;28;20287;-89
2022/01/01 02:26:57;;;;;;;4.00;3.70;;;12.90;99.90;;;;;;5093271;28;20220;-90
2022/01/01 02:29:25;;;;;;;3.42;3.13;;;12.90;99.90;;;;;;5092923;28;20236;-89
2022/01/01 02:31:53;;;;;;;4.07;3.75;;;12.80;99.90;;;;;;5093539;28;20228;-90
2022/01/01 02:34:22;;;;;;;3.78;3.40;;;12.90;99.90;;;;;;5093338;28;20212;-89
2022/01/01 02:36:51;;;;;;;4.80;4.15;;;12.80;99.90;;;;;;5093180;28;20228;-90
2022/01/01 02:39:23;;;;;;;4.00;3.60;;;12.80;99.90;;;;;;5092702;28;20255;-89
2022/01/01 02:41:54;;;;;;;5.53;3.80;;;12.80;99.90;;;;;;5092732;28;20236;-90
2022/01/01 02:44:23;;;;;;;4.15;3.75;;;12.80;99.90;;;;;;5093323;28;20273;-90
2022/01/01 02:46:53;;;;;;;4.70;3.85;;;12.80;99.90;;;;;;5093206;28;20224;-84
2022/01/01 02:49:21;;;;;;;3.50;3.25;;;12.80;99.90;;;;;;5092761;28;20204;-84
2022/01/01 02:51:50;;;;;;;4.45;3.88;;;12.80;99.90;;;;;;5093098;28;20239;-90
2022/01/01 02:54:20;;;;;;;4.13;3.70;;;12.80;99.90;;;;;;5092955;28;20204;-90
2022/01/01 02:56:49;;;;;;;5.28;4.20;;;12.80;99.90;;;;;;5092995;28;20224;-84
2022/01/01 02:59:18;;;;;;;4.65;3.95;;;12.80;99.90;;;;;;5092328;28;20232;-84
2022/01/01 03:01:48;;;;;;;3.35;3.05;;;12.80;99.90;;;;;;5093225;28;20223;-84
2022/01/01 03:04:17;;;;;;;7.32;3.75;;;12.80;99.90;;;;;;5092917;28;20224;-89
2022/01/01 03:06:52;;;;;;;3.58;3.28;;;12.80;99.90;;;;;;5092721;28;20221;-89
2022/01/01 03:09:24;;;;;;;4.22;3.83;;;12.80;99.90;;;;;;5092759;28;20296;-89
2022/01/01 03:11:52;;;;;;;3.78;3.47;;;12.80;99.90;;;;;;5092524;28;20208;-89
2022/01/01 03:14:20;;;;;;;4.30;3.90;;;12.80;99.90;;;;;;5092440;28;20204;-89
2022/01/01 03:16:51;;;;;;;4.78;4.07;;;12.80;99.90;;;;;;5092772;28;20227;-90
2022/01/01 03:19:19;;;;;;;4.47;4.10;;;12.80;99.90;;;;;;5091867;28;20220;-89
2022/01/01 03:21:47;;;;;;;4.43;3.80;;;12.80;99.90;;;;;;5092302;28;20247;-90
2022/01/01 03:24:16;;;;;;;5.65;3.92;;;12.80;99.90;;;;;;5092318;28;20226;-89
2022/01/01 03:26:46;;;;;;;4.28;3.88;;;12.80;99.90;;;;;;5092332;28;20239;-84
2022/01/01 03:29:14;;;;;;;3.92;3.33;;;12.80;99.90;;;;;;5091848;28;20192;-84
2022/01/01 03:31:43;;;;;;;3.83;3.50;;;12.80;99.90;;;;;;5091950;28;20228;-84
2022/01/01 03:34:11;;;;;;;6.25;4.30;;;12.80;99.90;;;;;;5092506;28;20264;-84
2022/01/01 03:36:40;;;;;;;4.05;3.75;;;12.70;99.90;;;;;;5092249;28;20269;-84
2022/01/01 03:39:09;;;;;;;3.97;3.55;;;12.70;99.90;;;;;;5091669;28;20224;-89
2022/01/01 03:41:37;;;;;;;4.00;3.63;;;12.70;99.90;;;;;;5092039;28;20201;-90
2022/01/01 03:44:07;;;;;;;4.95;3.15;;;12.70;99.90;;;;;;5092098;28;20268;-89
2022/01/01 03:46:35;;;;;;;3.50;3.00;;;12.70;99.90;;;;;;5092293;28;20224;-89
2022/01/01 03:49:04;;;;;;;5.75;3.95;;;12.70;99.90;;;;;;5092023;28;20200;-89
2022/01/01 03:51:32;;;;;;;4.55;3.10;;;12.80;99.90;;;;;;5092016;28;20256;-89
2022/01/01 03:54:00;;;;;;;3.85;3.38;;;12.70;99.90;;;;;;5092510;28;20227;-89
2022/01/01 03:56:29;;;;;;;3.38;3.08;;;12.70;99.90;;;;;;5091830;28;20327;-89
2022/01/01 03:58:57;;;;;;;3.53;3.22;;;12.70;99.90;;;;;;5091672;28;20284;-89
2022/01/01 04:01:27;;;;;;;3.20;3.00;;;12.70;99.90;;;;;;5092369;28;20211;-84
2022/01/01 04:03:56;;;;;;;3.85;3.53;;;12.70;99.90;;;;;;5091855;28;20382;-84
2022/01/01 04:06:24;;;;;;;3.28;3.03;;;12.70;99.90;;;;;;5092105;28;20311;-84
2022/01/01 04:08:52;;;;;;;4.47;3.40;;;12.60;99.90;;;;;;5091431;28;20239;-89
2022/01/01 04:11:21;;;;;;;2.92;2.72;;;12.70;99.90;;;;;;5092052;28;20228;-89
2022/01/01 04:13:50;;;;;;;3.58;3.28;;;12.70;99.90;;;;;;5092492;28;20303;-89
2022/01/01 04:16:20;;;;;;;3.25;2.70;;;12.70;99.90;;;;;;5091871;28;20246;-89
2022/01/01 04:18:50;;;;;;;12.50;3.08;;;12.70;99.90;;;;;;5091316;28;20247;-90
2022/01/01 04:21:19;;;;;;;3.15;2.85;;;12.60;99.90;;;;;;5092198;28;20204;-89
2022/01/01 04:23:47;;;;;;;4.50;2.70;;;12.60;99.90;;;;;;5093769;28;20204;-89
2022/01/01 04:26:15;;;;;;;2.88;2.67;;;12.60;99.90;;;;;;5096259;28;20258;-89
2022/01/01 04:28:47;;;;;;;3.72;3.17;;;12.60;99.90;;;;;;5095538;28;20265;-89
2022/01/01 04:31:15;;;;;;;5.22;2.80;;;12.50;99.90;;;;;;5096133;28;20250;-89
2022/01/01 04:33:45;;;;;;;3.35;3.05;;;12.40;99.90;;;;;;5096184;28;20204;-89
2022/01/01 04:36:14;;;;;;;2.97;2.67;;;12.40;99.90;;;;;;5095589;28;20301;-89
2022/01/01 04:38:44;;;;;;;4.25;2.70;;;12.40;99.90;;;;;;5095299;28;20243;-89
2022/01/01 04:41:14;;;;;;;3.83;3.25;;;12.40;99.90;;;;;;5095836;28;20291;-90
2022/01/01 04:43:47;;;;;;;3.15;2.72;;;12.30;99.90;;;;;;5095888;28;20291;-87
2022/01/01 04:46:16;;;;;;;2.22;2.10;;;12.30;99.90;;;;;;5095737;28;20304;-86
2022/01/01 04:48:45;;;;;;;2.55;2.33;;;12.30;99.90;;;;;;5095306;28;20207;-86
2022/01/01 04:51:14;;;;;;;3.10;2.90;;;12.30;99.90;;;;;;5095642;28;20208;-87
2022/01/01 04:53:44;;;;;;;2.83;2.63;;;12.30;99.90;;;;;;5095551;28;20215;-87
2022/01/01 04:56:18;;;;;;;2.97;2.65;;;12.30;99.90;;;;;;5094989;28;20229;-87
2022/01/01 04:58:47;;;;;;;3.63;2.78;;;12.30;99.90;;;;;;5094950;28;20220;-86
2022/01/01 05:01:16;;;;;;;3.15;2.83;;;12.30;99.90;;;;;;5095424;28;20242;-87
2022/01/01 05:03:44;;;;;;;3.15;2.85;;;12.30;99.90;;;;;;5095775;28;20208;-89
2022/01/01 05:06:16;;;;;;;2.30;2.20;;;12.20;99.90;;;;;;5095157;28;20228;-89
2022/01/01 05:08:44;;;;;;;3.22;2.80;;;12.20;99.90;;;;;;5094377;28;20208;-89
2022/01/01 05:11:12;;;;;;;2.70;2.50;;;12.20;99.90;;;;;;5095042;28;20296;-89
2022/01/01 05:13:41;;;;;;;2.53;2.40;;;12.20;99.90;;;;;;5095082;28;20246;-89
2022/01/01 05:16:14;;;;;;;4.22;3.33;;;12.10;99.90;;;;;;5095133;28;20321;-89
2022/01/01 05:18:42;;;;;;;3.25;3.03;;;12.20;99.90;;;;;;5094679;28;20270;-89
2022/01/01 05:21:11;;;;;;;2.67;2.35;;;12.20;99.90;;;;;;5094983;28;20243;-89
2022/01/01 05:23:41;;;;;;;2.40;2.20;;;12.20;99.90;;;;;;5095002;28;20284;-89
2022/01/01 05:26:09;;;;;;;3.85;2.75;;;12.30;99.90;;;;;;5094449;28;20259;-89
2022/01/01 05:28:37;;;;;;;2.53;2.33;;;12.30;99.90;;;;;;5094988;28;20227;-89
2022/01/01 05:31:05;;;;;;;3.88;2.67;;;12.30;99.90;;;;;;5094624;28;20296;-89
2022/01/01 05:33:34;;;;;;;2.28;2.15;;;12.30;99.90;;;;;;5094444;28;20292;-88
2022/01/01 05:36:03;;;;;;;2.75;2.53;;;12.30;99.90;;;;;;5094654;28;20280;-89
2022/01/01 05:38:31;;;;;;;3.00;2.05;;;12.30;99.90;;;;;;5094631;28;20212;-84
2022/01/01 05:41:01;;;;;;;2.42;2.22;;;12.30;99.90;;;;;;5093762;28;20243;-84
2022/01/01 05:43:29;;;;;;;2.63;2.42;;;12.30;99.90;;;;;;5094708;28;20212;-84
2022/01/01 05:45:57;;;;;;;1.77;1.67;;;12.30;99.90;;;;;;5094958;28;20311;-83
2022/01/01 05:48:26;;;;;;;2.92;2.53;;;12.30;99.90;;;;;;5094496;28;20204;-84
2022/01/01 05:50:55;;;;;;;2.08;1.98;;;12.30;99.90;;;;;;5093968;28;20287;-84
2022/01/01 05:53:23;;;;;;;1.95;1.75;;;12.30;99.90;;;;;;5094530;28;20287;-89
2022/01/01 05:55:52;;;;;;;2.38;2.17;;;12.30;99.90;;;;;;5094499;28;20311;-88
2022/01/01 05:58:22;;;;;;;3.38;2.75;;;12.30;99.90;;;;;;5094385;28;20247;-88
2022/01/01 06:00:52;;;;;;;2.17;1.98;;;12.30;99.90;;;;;;5093418;28;20312;-88
2022/01/01 06:03:20;;;;;;;3.45;2.42;;;12.30;99.90;;;;;;5094020;28;20204;-88
2022/01/01 06:05:51;;;;;;;5.88;1.73;;;12.40;99.90;;;;;;5094101;28;20277;-88
2022/01/01 06:08:20;;;;;;;2.47;2.25;;;12.60;99.90;;;;;;5094631;28;20208;-83
2022/01/01 06:10:48;;;;;;;2.22;1.98;;;12.60;99.90;;;;;;5093588;28;20209;-84
2022/01/01 06:13:17;;;;;;;1.88;1.77;;;12.60;99.90;;;;;;5094014;28;20208;-84
2022/01/01 06:15:46;;;;;;;2.08;1.90;;;12.70;99.90;;;;;;5094199;28;20263;-84
2022/01/01 06:18:15;;;;;;;2.15;1.90;;;12.60;99.90;;;;;;5093664;28;20211;-89
2022/01/01 06:20:43;;;;;;;4.50;2.60;;;12.60;99.90;;;;;;5093380;28;20274;-89
2022/01/01 06:23:12;;;;;;;2.53;2.33;;;12.60;99.90;;;;;;5093552;28;20293;-87
2022/01/01 06:25:40;;;;;;;2.40;2.20;;;12.60;99.90;;;;;;5093397;28;20224;-87
2022/01/01 06:28:09;;;;;;;1.95;1.75;;;12.60;99.90;;;;;;5093957;28;20228;-82
2022/01/01 06:30:37;;;;;;;2.10;2.00;;;12.60;99.90;;;;;;5093050;28;20299;-82
2022/01/01 06:33:15;;;;;;;3.63;2.95;;;12.60;99.90;;;;;;5093431;28;20291;-82
2022/01/01 06:35:44;;;;;;;2.58;2.38;;;12.60;99.90;;;;;;5093552;28;20288;-82
2022/01/01 06:38:13;;;;;;;2.95;2.63;;;12.60;99.90;;;;;;5093263;28;20224;-82
2022/01/01 06:40:44;;;;;;;3.00;2.70;;;12.40;99.90;;;;;;5092421;28;20247;-82
2022/01/01 06:43:14;;;;;;;3.50;3.17;;;12.40;99.90;;;;;;5093917;28;20303;-82
2022/01/01 06:45:43;;;;;;;2.75;2.53;;;12.30;99.90;;;;;;5092842;28;20220;-87
2022/01/01 06:48:13;;;;;;;3.13;2.90;;;12.20;99.90;;;;;;5093128;28;20204;-87
2022/01/01 06:50:41;;;;;;;5.05;3.53;;;12.10;99.90;;;;;;5092966;28;20277;-87
2022/01/01 06:53:10;;;;;;;3.08;2.88;;;12.10;99.90;;;;;;5093041;28;20200;-87
2022/01/01 06:55:39;;;;;;;4.30;2.88;;;12.00;99.90;;;;;;5093121;28;20223;-87
2022/01/01 06:58:07;;;;;;;4.82;3.22;;;12.00;99.90;;;;;;5093153;28;20213;-87
2022/01/01 07:00:35;;;;;;;4.53;3.05;;;11.90;99.90;;;;;;5092188;28;20216;-87
2022/01/01 07:03:04;;;;;;;3.58;3.28;;;11.80;99.90;;;;;;5092996;28;20221;-87
2022/01/01 07:05:34;;;;;;;3.35;2.80;;;11.80;99.90;;;;;;5093303;28;20315;-82
2022/01/01 07:08:03;;;;;;;5.70;2.67;;;11.70;99.90;;;;;;5093180;28;20205;-81
2022/01/01 07:10:31;;;;;;;3.78;3.42;;;11.60;99.90;;;;;;5092667;28;20208;-89
2022/01/01 07:12:59;;;;;;;5.18;3.22;;;11.60;99.90;;;;;;5092709;28;20296;-89
2022/01/01 07:15:27;;;;;;;3.20;2.90;;;11.60;99.90;;;;;;5092954;28;20275;-88
2022/01/01 07:17:56;;;;;;;6.95;3.17;;;11.60;99.90;;;;;;5092572;28;20256;-88
2022/01/01 07:20:24;;;;;;;5.10;3.00;;;11.70;99.90;;;;;;5092407;28;20255;-88
2022/01/01 07:22:54;;;;;;;2.95;2.75;;;11.60;99.90;;;;;;5092384;28;20212;-88
2022/01/01 07:25:22;;;;;;;3.03;2.72;;;11.70;99.90;;;;;;5093163;28;20362;-88
2022/01/01 07:27:50;;;;;;;3.17;2.88;;;11.80;99.90;;;;;;5092782;28;20267;-88
2022/01/01 07:30:19;;;;;;;5.10;3.33;;;11.80;99.90;;;;;;5092301;28;20200;-88
2022/01/01 07:32:49;;;;;;;2.83;2.60;;;11.90;99.90;;;;;;5092774;28;20257;-87
2022/01/01 07:35:19;;;;;;;3.00;2.80;;;11.90;99.90;;;;;;5092808;28;20228;-86
2022/01/01 07:37:48;;;;;;;2.60;2.40;;;11.90;99.90;;;;;;5092801;28;20253;-86
2022/01/01 07:40:19;;;;;;;2.70;2.50;;;11.90;99.90;;;;;;5092030;28;20256;-86
2022/01/01 07:42:48;;;;;;;2.83;2.63;;;11.90;99.90;;;;;;5092072;28;20200;-86
2022/01/01 07:45:19;;;;;;;3.88;2.75;;;12.00;99.90;;;;;;5092579;28;20254;-86
2022/01/01 07:47:47;;;;;;;4.60;3.15;;;12.00;99.90;;;;;;5092747;28;20201;-86
2022/01/01 07:50:17;;;;;;;3.35;2.88;;;12.10;99.90;;;;;;5091880;28;20264;-88
2022/01/01 07:52:46;;;;;;;2.70;2.50;;;12.10;99.90;;;;;;5092435;28;20263;-88
2022/01/01 07:55:14;;;;;;;3.05;2.45;;;12.10;99.90;;;;;;5092138;28;20252;-88
2022/01/01 07:57:44;;;;;;;3.08;2.63;;;12.10;99.90;;;;;;5092441;28;20251;-88
2022/01/01 08:00:14;;;;;;;2.63;2.42;;;12.20;99.90;;;;;;5096008;28;20216;-88
2022/01/01 08:02:43;;;;;;;2.75;2.47;;;12.20;99.90;;;;;;5097011;28;20232;-88
2022/01/01 08:05:13;;;;;;;3.22;2.55;;;12.20;99.90;;;;;;5096118;28;20227;-88
2022/01/01 08:07:41;;;;;;;2.50;2.30;;;12.20;99.90;;;;;;5096155;28;20223;-88
2022/01/01 08:10:30;;;;;;;3.50;2.95;;;12.20;99.90;;;;;;5097760;28;20249;-88
2022/01/01 08:13:00;;;;;;;2.30;2.10;;;12.30;99.90;;;;;;5096594;28;20204;-88
2022/01/01 08:15:28;;;;;;;3.35;2.88;;;12.30;99.90;;;;;;5096160;28;20231;-88
2022/01/01 08:17:57;;;;;;;4.53;2.53;;;12.40;99.90;;;;;;5096091;28;20197;-88
2022/01/01 08:20:35;;;;;;;2.55;2.35;;;12.50;99.90;;;;;;5095803;28;20220;-88
2022/01/01 08:23:04;;;;;;;2.50;2.33;;;12.60;99.90;;;;;;5096394;28;20243;-88
2022/01/01 08:25:32;;;;;;;3.60;3.30;;;12.60;99.90;;;;;;5096068;28;20307;-88
2022/01/01 08:28:02;;;;;;;2.38;2.17;;;12.70;99.90;;;;;;5096010;28;20283;-88
2022/01/01 08:30:30;;;;;;;8.32;2.53;;;12.80;99.90;;;;;;5095240;28;20224;-88
2022/01/01 08:33:01;;;;;;;2.80;2.55;;;12.90;99.90;;;;;;5095993;28;20224;-88
2022/01/01 08:35:30;;;;;;;2.92;2.72;;;12.90;99.90;;;;;;5095993;28;20232;-88
2022/01/01 08:37:59;;;;;;;2.63;2.15;;;13.00;99.90;;;;;;5096099;28;20212;-88
2022/01/01 08:40:31;;;;;;;2.88;2.47;;;13.00;99.90;;;;;;5095141;28;20220;-88
2022/01/01 08:43:01;;;;;;;3.10;2.33;;;13.10;99.90;;;;;;5095644;28;20239;-83
2022/01/01 08:45:34;;;;;;;4.82;2.75;;;13.20;99.90;;;;;;5095537;28;20284;-83
2022/01/01 08:48:03;;;;;;;4.55;2.65;;;13.20;99.90;;;;;;5095516;28;20208;-88
2022/01/01 08:50:31;;;;;;;2.45;2.25;;;13.30;99.90;;;;;;5095677;28;20231;-88
2022/01/01 08:53:00;;;;;;;5.05;2.72;;;13.30;99.90;;;;;;5095579;28;20208;-89
2022/01/01 08:55:29;;;;;;;2.17;2.08;;;13.40;99.90;;;;;;5095491;28;20244;-88
2022/01/01 08:57:57;;;;;;;2.40;2.20;;;13.50;99.90;;;;;;5095610;28;20216;-88
2022/01/01 09:00:47;;;;;;;1.88;1.77;;;13.50;99.90;;;;;;5095264;28;20221;-88
2022/01/01 09:03:15;;;;;;;3.03;2.72;;;13.60;99.90;;;;;;5095335;28;20207;-88
2022/01/01 09:05:44;;;;;;;2.67;2.42;;;13.60;99.90;;;;;;5095581;28;20240;-88
2022/01/01 09:08:32;;;;;;;2.78;2.42;;;13.60;99.90;;;;;;5095401;28;20208;-81
2022/01/01 09:11:01;;;;;;;3.05;2.70;;;13.60;99.90;;;;;;5094735;28;20224;-81
2022/01/01 09:13:30;;;;;;;2.08;1.95;;;13.70;99.90;;;;;;5095154;28;20209;-81
2022/01/01 09:16:00;;;;;;;3.47;3.15;;;13.70;99.90;;;;;;5095214;28;20225;-81
2022/01/01 09:18:29;;;;;;;2.00;1.90;;;13.70;99.90;;;;;;5095071;28;20205;-81
2022/01/01 09:20:57;;;;;;;2.67;2.40;;;13.80;99.90;;;;;;5094519;28;20244;-81
2022/01/01 09:23:27;;;;;;;2.13;1.98;;;13.80;99.90;;;;;;5095007;28;20200;-81
2022/01/01 09:25:56;;;;;;;2.67;2.47;;;13.90;99.90;;;;;;5094943;28;20224;-81
2022/01/01 09:28:24;;;;;;;3.80;2.40;;;13.90;99.90;;;;;;5094898;28;20208;-81
2022/01/01 09:30:56;;;;;;;2.38;2.10;;;13.90;99.90;;;;;;5093957;28;20212;-81
2022/01/01 09:33:30;;;;;;;2.47;2.33;;;13.90;99.90;;;;;;5094833;28;20208;-87
2022/01/01 09:35:59;;;;;;;4.05;2.42;;;13.90;99.90;;;;;;5094777;28;20224;-87
2022/01/01 09:38:28;;;;;;;2.28;2.10;;;13.80;99.90;;;;;;5094719;28;20200;-87
2022/01/01 09:40:57;;;;;;;2.50;2.30;;;13.70;99.90;;;;;;5094190;28;20282;-88
2022/01/01 09:43:28;;;;;;;2.28;2.10;;;13.70;99.90;;;;;;5094504;28;20208;-87
2022/01/01 09:45:58;;;;;;;2.83;2.63;;;13.70;99.90;;;;;;5094514;28;20248;-86
2022/01/01 09:48:29;;;;;;;2.60;2.40;;;13.70;99.90;;;;;;5094318;28;20212;-87
2022/01/01 09:50:59;;;;;;;1.85;1.75;;;13.70;99.90;;;;;;5094064;28;20239;-87
2022/01/01 09:53:29;;;;;;;2.33;2.13;;;13.80;99.90;;;;;;5094304;28;20197;-87
2022/01/01 09:56:00;;;;;;;2.08;1.98;;;13.80;99.90;;;;;;5094284;28;20224;-87
2022/01/01 09:58:30;;;;;;;2.45;2.25;;;13.80;99.90;;;;;;5094308;28;20230;-87
2022/01/01 10:00:59;;;;;;;1.98;1.88;;;13.90;99.90;;;;;;5093630;28;20232;-87
2022/01/01 10:03:30;;;;;;;2.67;2.47;;;13.90;99.90;;;;;;5094601;28;20222;-87
2022/01/01 10:06:01;;;;;;;2.92;2.38;;;14.00;99.90;;;;;;5094144;28;20270;-87
2022/01/01 10:08:29;;;;;;;2.92;2.33;;;14.10;99.90;;;;;;5094208;28;20220;-87
2022/01/01 10:10:58;;;;;;;1.92;1.83;;;14.20;99.90;;;;;;5093645;28;20204;-86
2022/01/01 10:13:32;;;;;;;1.98;1.88;;;14.30;99.90;;;;;;5094156;28;20231;-87
2022/01/01 10:16:02;;;;;;;2.28;2.00;;;14.20;99.90;;;;;;5093900;28;20302;-86
2022/01/01 10:18:35;;;;;;;3.22;2.22;;;14.30;99.90;;;;;;5094127;28;20210;-87
2022/01/01 10:21:09;;;;;;;2.85;2.30;;;14.30;99.90;;;;;;5093216;28;20280;-87
2022/01/01 10:23:39;;;;;;;7.05;3.00;;;14.50;99.90;;;;;;5093747;28;20216;-82
2022/01/01 10:29:13;;;;;;;8.30;2.25;;;14.90;99.90;;;;;;5093182;28;20344;-82
2022/01/01 10:31:56;;;;;;;1.83;1.73;;;15.30;99.90;;;;;;5093853;28;20235;-81
2022/01/01 10:34:27;;;;;;;2.80;2.60;;;15.70;99.90;;;;;;5093802;28;20296;-82
2022/01/01 10:36:57;;;;;;;1.77;1.67;;;15.90;99.90;;;;;;5093474;28;20239;-82
2022/01/01 10:39:26;;;;;;;2.15;1.95;;;15.90;99.90;;;;;;5093036;28;20295;-87
2022/01/01 10:41:56;;;;;;;2.30;2.10;;;16.30;99.90;;;;;;5092946;28;20213;-87
2022/01/01 10:44:29;;;;;;;2.20;2.00;;;16.70;99.90;;;;;;5093416;28;20288;-87
2022/01/01 10:46:59;;;;;;;2.38;2.20;;;16.80;99.90;;;;;;5093375;28;20304;-87
2022/01/01 10:49:35;;;;;;;2.35;2.15;;;16.80;99.90;;;;;;5093088;28;20204;-87
2022/01/01 10:52:18;;;;;;;2.30;2.13;;;16.60;99.90;;;;;;5093511;28;20196;-87
2022/01/01 10:54:57;;;;;;;2.38;2.17;;;16.60;99.90;;;;;;5093215;28;20232;-87
2022/01/01 10:57:33;;;;;;;5.43;2.05;;;16.60;99.90;;;;;;5093208;28;20239;-87
2022/01/01 11:00:11;;;;;;;2.58;2.33;;;17.00;99.90;;;;;;5092788;28;20219;-87
2022/01/01 11:02:42;;;;;;;3.20;1.95;;;16.90;99.90;;;;;;5092714;28;20224;-87
2022/01/01 11:05:12;;;;;;;2.25;2.03;;;17.30;99.90;;;;;;5093180;28;20224;-87
2022/01/01 11:07:51;;;;;;;2.20;2.03;;;17.40;99.90;;;;;;5093286;28;20208;-87
2022/01/01 11:10:21;;;;;;;2.17;1.98;;;17.30;99.90;;;;;;5093226;28;20257;-87
2022/01/01 11:12:50;;;;;;;1.88;1.75;;;17.10;99.90;;;;;;5092955;28;20277;-87
2022/01/01 11:15:19;;;;;;;2.75;2.33;;;16.80;99.90;;;;;;5092886;28;20236;-82
2022/01/01 11:17:49;;;;;;;2.58;2.38;;;16.30;99.90;;;;;;5093156;28;20205;-82
2022/01/01 11:20:20;;;;;;;2.47;2.10;;;16.40;99.90;;;;;;5092464;28;20232;-82
2022/01/01 11:22:49;;;;;;;2.25;2.05;;;16.50;99.90;;;;;;5092687;28;20307;-82
2022/01/01 11:25:19;;;;;;;2.85;2.13;;;16.70;99.90;;;;;;5092812;28;20252;-82
2022/01/01 11:27:48;;;;;;;2.05;1.95;;;16.60;99.90;;;;;;5092540;28;20219;-82
2022/01/01 11:30:17;;;;;;;2.97;2.28;;;16.80;99.90;;;;;;5092304;28;20213;-87
2022/01/01 11:32:51;;;;;;;5.32;2.83;;;16.80;99.90;;;;;;5092716;28;20284;-87
2022/01/01 11:35:23;;;;;;;2.78;2.53;;;17.10;99.90;;;;;;5092968;28;20228;-88
2022/01/01 11:37:59;;;;;;;2.05;1.83;;;17.20;99.90;;;;;;5092692;28;20204;-87
2022/01/01 11:40:32;;;;;;;1.92;1.83;;;17.30;99.90;;;;;;5092297;28;20207;-82
2022/01/01 11:43:01;;;;;;;2.50;2.28;;;17.00;99.90;;;;;;5092810;28;20244;-82
2022/01/01 11:45:44;;;;;;;2.28;2.17;;;16.70;99.90;;;;;;5092366;28;20319;-82
2022/01/01 11:48:33;;;;;;;2.20;2.00;;;16.90;99.90;;;;;;5092427;28;20210;-82
2022/01/01 11:51:26;;;;;;;2.90;1.98;;;17.40;99.90;;;;;;5092050;28;20200;-82
2022/01/01 11:54:22;;;;;;;2.47;2.28;;;17.20;99.90;;;;;;5092448;28;20283;-82
2022/01/01 11:57:05;;;;;;;2.30;2.10;;;16.40;99.90;;;;;;5092236;28;20229;-82
2022/01/01 11:59:44;;;;;;;2.00;1.90;;;16.30;99.90;;;;;;5091722;28;20267;-82
2022/01/01 12:02:44;;;;;;;2.15;2.05;;;16.10;99.90;;;;;;5092457;28;20240;-82
2022/01/01 12:05:22;;;;;;;1.88;1.77;;;15.90;99.90;;;;;;5092497;28;20299;-82
2022/01/01 12:07:54;;;;;;;2.25;2.00;;;15.50;99.90;;;;;;5092884;28;20227;-82
2022/01/01 12:10:31;;;;;;;2.05;1.90;;;15.40;99.90;;;;;;5092071;28;20231;-82
2022/01/01 12:13:01;;;;;;;2.70;2.08;;;15.30;99.90;;;;;;5092405;28;20279;-82
2022/01/01 12:15:43;;;;;;;2.10;1.90;;;15.30;99.90;;;;;;5092339;28;20250;-82
2022/01/01 12:18:13;;;;;;;2.15;1.85;;;15.20;99.90;;;;;;5092081;28;20207;-82
2022/01/01 12:20:45;;;;;;;1.60;1.50;;;15.00;99.90;;;;;;5092005;28;20258;-82
2022/01/01 12:23:16;;;;;;;2.20;2.00;;;14.90;99.90;;;;;;5092465;28;20312;-82
2022/01/01 12:25:46;;;;;;;2.40;2.20;;;14.90;99.90;;;;;;5092177;28;20281;-82
2022/01/01 12:28:17;;;;;;;1.95;1.85;;;14.90;99.90;;;;;;5092299;28;20240;-82
2022/01/01 12:30:48;;;;;;;1.35;1.33;;;14.70;99.90;;;;;;5091526;28;20228;-82
2022/01/01 12:33:42;;;;;;;2.40;1.52;;;14.60;99.90;;;;;;5091945;28;20206;-82
2022/01/01 12:36:12;;;;;;;2.47;2.22;;;14.50;99.90;;;;;;5092177;28;20259;-82
2022/01/01 12:38:49;;;;;;;2.47;2.15;;;14.40;99.90;;;;;;5091491;28;20232;-82
2022/01/01 12:41:19;;;;;;;1.98;1.88;;;14.40;99.90;;;;;;5091848;28;20216;-82
2022/01/01 12:43:52;;;;;;;2.60;2.40;;;14.40;99.90;;;;;;5091533;28;20316;-82
2022/01/01 12:46:23;;;;;;;1.67;1.58;;;14.40;99.90;;;;;;5095373;28;20228;-82
2022/01/01 12:48:53;;;;;;;2.38;1.90;;;14.40;99.90;;;;;;5095325;28;20219;-88
2022/01/01 12:51:23;;;;;;;2.90;2.17;;;14.30;99.90;;;;;;5096102;28;20205;-88
2022/01/01 12:53:59;;;;;;;6.60;2.35;;;14.30;99.90;;;;;;5095720;28;20203;-87
2022/01/01 12:56:28;;;;;;;1.73;1.63;;;14.20;99.90;;;;;;5095299;28;20244;-88
2022/01/01 12:58:59;;;;;;;1.75;1.65;;;14.30;99.90;;;;;;5094744;28;20201;-87
2022/01/01 13:01:28;;;;;;;2.20;2.00;;;14.40;99.90;;;;;;5095056;28;20228;-87
2022/01/01 13:04:07;;;;;;;1.77;1.67;;;14.30;99.90;;;;;;5095543;28;20228;-87
2022/01/01 13:06:37;;;;;;;1.90;1.80;;;14.30;99.90;;;;;;5096008;28;20257;-87
2022/01/01 13:09:14;;;;;;;1.73;1.63;;;14.30;99.90;;;;;;5094628;28;20212;-87